createdAt,value
2016-04-25T07:03:19.094Z,475
2016-04-25T07:03:32.297Z,480
2016-04-25T07:03:45.797Z,470
2016-04-25T07:03:59.125Z,475
2016-04-25T07:04:12.469Z,470
2016-04-25T07:04:25.816Z,480
2016-04-25T07:04:39.128Z,485
2016-04-25T07:04:52.456Z,490
2016-04-25T07:05:05.769Z,495
2016-04-25T07:05:19.100Z,505
2016-04-25T07:05:32.866Z,510
2016-04-25T07:05:46.194Z,515
2016-04-25T07:05:59.522Z,520
2016-04-25T07:06:12.866Z,520
2016-04-25T07:06:26.056Z,520
2016-04-25T07:06:39.369Z,515
2016-04-25T07:06:52.681Z,520
2016-04-25T07:07:06.009Z,520
2016-04-25T07:07:19.339Z,515
2016-04-25T07:07:36.277Z,515
2016-04-25T07:07:49.605Z,525
2016-04-25T07:08:02.918Z,515
2016-04-25T07:08:16.246Z,520
2016-04-25T07:08:29.577Z,520
2016-04-25T07:08:42.921Z,515
2016-04-25T07:08:56.264Z,520
2016-04-25T07:09:09.624Z,510
2016-04-25T07:09:22.939Z,505
2016-04-25T07:09:36.267Z,500
2016-04-25T07:09:49.611Z,500
2016-04-25T07:10:02.924Z,500
2016-04-25T07:10:16.267Z,495
2016-04-25T07:10:29.676Z,500
2016-04-25T07:10:43.316Z,495
2016-04-25T07:10:56.613Z,495
2016-04-25T07:11:09.957Z,490
2016-04-25T07:11:23.288Z,490
2016-04-25T07:11:36.632Z,485
2016-04-25T07:11:49.944Z,485
2016-04-25T07:12:03.475Z,485
2016-04-25T07:12:16.804Z,485
2016-04-25T07:12:36.822Z,495
2016-04-25T07:12:50.166Z,500
2016-04-25T07:13:03.478Z,505
2016-04-25T07:13:17.166Z,510
2016-04-25T07:13:31.012Z,515
2016-04-25T07:13:45.871Z,525
2016-04-25T07:14:00.434Z,525
2016-04-25T07:14:13.355Z,530
2016-04-25T07:14:26.905Z,535
2016-04-25T07:14:40.218Z,535
2016-04-25T07:14:53.546Z,540
2016-04-25T07:15:06.858Z,540
2016-04-25T07:15:20.205Z,540
2016-04-25T07:15:33.565Z,540
2016-04-25T07:15:46.877Z,540
2016-04-25T07:16:00.221Z,545
2016-04-25T07:16:13.533Z,545
2016-04-25T07:16:27.035Z,545
2016-04-25T07:16:40.598Z,545
2016-04-25T07:16:54.113Z,545
2016-04-25T07:17:07.457Z,545
2016-04-25T07:17:20.632Z,550
2016-04-25T07:17:34.538Z,550
2016-04-25T07:18:16.163Z,560
2016-04-25T07:18:29.729Z,560
2016-04-25T07:18:43.088Z,565
2016-04-25T07:18:56.416Z,565
2016-04-25T07:19:09.744Z,565
2016-04-25T07:19:23.279Z,565
2016-04-25T07:19:36.607Z,565
2016-04-25T07:19:49.966Z,565
2016-04-25T07:20:03.310Z,565
2016-04-25T07:20:16.638Z,570
2016-04-25T07:20:30.156Z,570
2016-04-25T07:20:43.734Z,565
2016-04-25T07:20:57.062Z,565
2016-04-25T07:21:13.406Z,570
2016-04-25T07:21:26.909Z,570
2016-04-25T07:21:40.237Z,575
2016-04-25T07:21:53.581Z,580
2016-04-25T07:22:07.096Z,580
2016-04-25T07:22:20.442Z,580
2016-04-25T07:22:35.129Z,585
2016-04-25T07:22:48.286Z,585
2016-04-25T07:23:01.629Z,585
2016-04-25T07:23:14.958Z,585
2016-04-25T07:23:28.273Z,580
2016-04-25T07:23:41.601Z,580
2016-04-25T07:23:55.117Z,580
2016-04-25T07:24:08.461Z,575
2016-04-25T07:24:21.792Z,575
2016-04-25T07:24:35.120Z,585
2016-04-25T07:24:48.464Z,585
2016-04-25T07:25:01.760Z,590
2016-04-25T07:25:15.120Z,590
2016-04-25T07:25:56.107Z,615
2016-04-25T07:26:09.435Z,610
2016-04-25T07:26:22.734Z,615
2016-04-25T07:26:36.062Z,615
2016-04-25T07:26:49.406Z,620
2016-04-25T07:27:02.734Z,625
2016-04-25T07:27:16.062Z,630
2016-04-25T07:27:31.659Z,630
2016-04-25T07:27:45.362Z,635
2016-04-25T07:27:58.878Z,630
2016-04-25T07:28:12.253Z,630
2016-04-25T07:28:25.584Z,635
2016-04-25T07:28:38.818Z,625
2016-04-25T07:28:52.381Z,625
2016-04-25T07:29:06.318Z,625
2016-04-25T07:29:19.773Z,615
2016-04-25T07:29:33.180Z,605
2016-04-25T07:29:46.508Z,605
2016-04-25T07:29:59.836Z,610
2016-04-25T07:30:13.148Z,610
2016-04-25T07:30:26.495Z,610
2016-04-25T07:30:42.855Z,605
2016-04-25T07:30:56.011Z,605
2016-04-25T07:31:09.355Z,595
2016-04-25T07:31:22.654Z,595
2016-04-25T07:31:35.967Z,595
2016-04-25T07:31:49.295Z,595
2016-04-25T07:32:02.608Z,595
2016-04-25T07:32:15.764Z,585
2016-04-25T07:32:29.767Z,580
2016-04-25T07:32:43.111Z,580
2016-04-25T07:32:56.407Z,575
2016-04-25T07:33:09.720Z,580
2016-04-25T07:33:23.034Z,580
2016-04-25T07:33:36.378Z,585
2016-04-25T07:33:49.691Z,585
2016-04-25T07:34:02.988Z,585
2016-04-25T07:34:16.316Z,590
2016-04-25T07:34:29.631Z,585
2016-04-25T07:34:42.959Z,585
2016-04-25T07:34:56.256Z,580
2016-04-25T07:35:08.850Z,585
2016-04-25T07:35:22.165Z,580
2016-04-25T07:35:49.634Z,585
2016-04-25T07:36:02.931Z,605
2016-04-25T07:36:16.228Z,615
2016-04-25T07:36:29.417Z,625
2016-04-25T07:36:42.777Z,625
2016-04-25T07:36:56.089Z,620
2016-04-25T07:37:12.449Z,610
2016-04-25T07:37:27.545Z,600
2016-04-25T07:37:43.249Z,600
2016-04-25T07:37:56.592Z,600
2016-04-25T07:38:10.108Z,600
2016-04-25T07:38:23.407Z,595
2016-04-25T07:38:36.547Z,590
2016-04-25T07:38:49.891Z,580
2016-04-25T07:39:03.188Z,580
2016-04-25T07:39:16.547Z,580
2016-04-25T07:39:29.864Z,580
2016-04-25T07:39:43.176Z,585
2016-04-25T07:39:56.489Z,590
2016-04-25T07:40:09.786Z,600
2016-04-25T07:40:23.116Z,605
2016-04-25T07:40:36.475Z,610
2016-04-25T07:41:16.522Z,630
2016-04-25T07:41:29.838Z,630
2016-04-25T07:41:43.181Z,630
2016-04-25T07:41:56.494Z,635
2016-04-25T07:42:09.822Z,640
2016-04-25T07:42:23.168Z,645
2016-04-25T07:42:40.012Z,640
2016-04-25T07:42:53.340Z,650
2016-04-25T07:43:06.668Z,655
2016-04-25T07:43:20.405Z,660
2016-04-25T07:43:34.218Z,670
2016-04-25T07:43:48.343Z,675
2016-04-25T07:44:01.233Z,685
2016-04-25T07:44:14.749Z,695
2016-04-25T07:44:27.954Z,705
2016-04-25T07:44:41.329Z,705
2016-04-25T07:44:54.657Z,710
2016-04-25T07:45:07.954Z,715
2016-04-25T07:45:21.286Z,710
2016-04-25T07:45:48.786Z,690
2016-04-25T07:46:02.114Z,690
2016-04-25T07:46:15.411Z,690
2016-04-25T07:46:28.741Z,690
2016-04-25T07:46:42.085Z,695
2016-04-25T07:46:55.413Z,700
2016-04-25T07:47:08.726Z,695
2016-04-25T07:47:22.026Z,690
2016-04-25T07:47:35.401Z,685
2016-04-25T07:47:50.385Z,680
2016-04-25T07:48:03.916Z,680
2016-04-25T07:48:17.244Z,685
2016-04-25T07:48:30.559Z,690
2016-04-25T07:48:43.887Z,700
2016-04-25T07:48:57.199Z,715
2016-04-25T07:49:10.371Z,730
2016-04-25T07:49:23.687Z,740
2016-04-25T07:49:37.015Z,755
2016-04-25T07:49:50.343Z,765
2016-04-25T07:50:03.687Z,775
2016-04-25T07:50:16.999Z,775
2016-04-25T07:50:30.284Z,770
2016-04-25T07:50:43.612Z,755
2016-04-25T07:50:56.924Z,750
2016-04-25T07:51:10.221Z,740
2016-04-25T07:51:23.598Z,735
2016-04-25T07:51:36.895Z,730
2016-04-25T07:51:50.223Z,725
2016-04-25T07:52:03.536Z,730
2016-04-25T07:52:16.848Z,730
2016-04-25T07:52:33.961Z,730
2016-04-25T07:52:46.508Z,730
2016-04-25T07:52:59.868Z,735
2016-04-25T07:53:13.008Z,740
2016-04-25T07:53:26.354Z,745
2016-04-25T07:53:39.651Z,745
2016-04-25T07:53:52.979Z,755
2016-04-25T07:54:06.354Z,765
2016-04-25T07:54:19.682Z,785
2016-04-25T07:54:33.045Z,805
2016-04-25T07:54:46.326Z,820
2016-04-25T07:54:59.857Z,840
2016-04-25T07:55:13.201Z,875
2016-04-25T07:55:26.516Z,910
2016-04-25T07:55:39.829Z,955
2016-04-25T07:55:53.173Z,995
2016-04-25T07:56:06.469Z,1025
2016-04-25T07:56:19.813Z,1050
2016-04-25T07:56:32.956Z,1070
2016-04-25T07:56:46.284Z,1080
2016-04-25T07:56:59.628Z,1100
2016-04-25T07:57:12.956Z,1110
2016-04-25T07:57:27.864Z,1115
2016-04-25T07:57:44.223Z,1130
2016-04-25T07:57:57.536Z,1130
2016-04-25T07:58:11.020Z,1125
2016-04-25T07:58:24.587Z,1085
2016-04-25T07:58:38.649Z,1045
2016-04-25T07:58:51.665Z,1035
2016-04-25T07:59:04.790Z,1020
2016-04-25T07:59:17.477Z,980
2016-04-25T07:59:31.401Z,930
2016-04-25T07:59:44.729Z,915
2016-04-25T07:59:58.073Z,880
2016-04-25T08:00:11.386Z,840
2016-04-25T08:00:24.717Z,795
2016-04-25T08:00:38.014Z,800
2016-04-25T08:00:51.311Z,795
2016-04-25T08:01:07.623Z,795
2016-04-25T08:01:20.936Z,815
2016-04-25T08:01:34.267Z,820
2016-04-25T08:01:47.579Z,815
2016-04-25T08:02:00.876Z,840
2016-04-25T08:02:14.204Z,875
2016-04-25T08:02:41.534Z,1005
2016-04-25T08:02:54.847Z,995
2016-04-25T08:03:08.175Z,965
2016-04-25T08:03:21.487Z,965
2016-04-25T08:03:34.819Z,1035
2016-04-25T08:03:48.131Z,1190
2016-04-25T08:04:01.459Z,1235
2016-04-25T08:04:14.787Z,1185
2016-04-25T08:04:31.118Z,1175
2016-04-25T08:04:44.447Z,1140
2016-04-25T08:04:57.775Z,1340
2016-04-25T08:05:11.087Z,1345
2016-04-25T08:05:24.277Z,1390
2016-04-25T08:05:37.605Z,1380
2016-04-25T08:05:50.886Z,1325
2016-04-25T08:06:04.230Z,1240
2016-04-25T08:06:17.558Z,1180
2016-04-25T08:06:30.905Z,1185
2016-04-25T08:06:44.217Z,1255
2016-04-25T08:06:57.530Z,1345
2016-04-25T08:07:10.842Z,1405
2016-04-25T08:07:25.736Z,1545
2016-04-25T08:07:42.267Z,1645
2016-04-25T08:07:55.564Z,1650
2016-04-25T08:08:08.908Z,1680
2016-04-25T08:08:22.205Z,1910
2016-04-25T08:08:35.550Z,2150
2016-04-25T08:08:48.878Z,1950
2016-04-25T08:09:02.207Z,1730
2016-04-25T08:09:15.535Z,1640
2016-04-25T08:09:28.897Z,1630
2016-04-25T08:09:42.210Z,1645
2016-04-25T08:09:55.522Z,1630
2016-04-25T08:10:09.053Z,1585
2016-04-25T08:10:22.397Z,1510
2016-04-25T08:10:35.728Z,1495
2016-04-25T08:10:49.056Z,1565
2016-04-25T08:11:02.353Z,1615
2016-04-25T08:11:15.650Z,1620
2016-04-25T08:11:28.966Z,1530
2016-04-25T08:11:42.309Z,1395
2016-04-25T08:11:55.637Z,1305
2016-04-25T08:12:08.950Z,1340
2016-04-25T08:12:22.787Z,1440
2016-04-25T08:12:39.117Z,1475
2016-04-25T08:12:52.414Z,1420
2016-04-25T08:13:05.758Z,1335
2016-04-25T08:13:19.086Z,1300
2016-04-25T08:13:32.729Z,1285
2016-04-25T08:13:46.167Z,1225
2016-04-25T08:14:00.151Z,1130
2016-04-25T08:14:14.729Z,1140
2016-04-25T08:14:28.967Z,1110
2016-04-25T08:14:42.717Z,1085
2016-04-25T08:14:55.889Z,1120
2016-04-25T08:15:09.217Z,1180
2016-04-25T08:15:22.545Z,1240
2016-04-25T08:15:35.859Z,1320
2016-04-25T08:15:49.172Z,1385
2016-04-25T08:16:02.484Z,1420
2016-04-25T08:16:15.828Z,1425
2016-04-25T08:16:29.143Z,1410
2016-04-25T08:16:42.440Z,1430
2016-04-25T08:16:55.986Z,1500
2016-04-25T08:17:09.315Z,1515
2016-04-25T08:17:22.643Z,1490
2016-04-25T08:17:35.959Z,1475
2016-04-25T08:17:48.959Z,1475
2016-04-25T08:18:02.115Z,1500
2016-04-25T08:18:15.631Z,1560
2016-04-25T08:18:28.977Z,1695
2016-04-25T08:18:42.289Z,1855
2016-04-25T08:18:58.617Z,1830
2016-04-25T08:19:11.914Z,1755
2016-04-25T08:19:25.245Z,1640
2016-04-25T08:19:38.605Z,1500
2016-04-25T08:19:51.933Z,1475
2016-04-25T08:20:05.230Z,1530
2016-04-25T08:20:21.574Z,1610
2016-04-25T08:20:34.888Z,1630
2016-04-25T08:20:48.247Z,1595
2016-04-25T08:21:01.544Z,1685
2016-04-25T08:21:14.857Z,1790
2016-04-25T08:21:42.360Z,1700
2016-04-25T08:21:55.532Z,1695
2016-04-25T08:22:08.547Z,1675
2016-04-25T08:22:21.564Z,1630
2016-04-25T08:22:34.786Z,1570
2016-04-25T08:22:48.098Z,1500
2016-04-25T08:23:01.426Z,1405
2016-04-25T08:23:14.739Z,1365
2016-04-25T08:23:31.070Z,1375
2016-04-25T08:23:44.382Z,1410
2016-04-25T08:23:57.710Z,1485
2016-04-25T08:24:11.351Z,1630
2016-04-25T08:24:24.525Z,1825
2016-04-25T08:24:37.837Z,1975
2016-04-25T08:24:51.166Z,1980
2016-04-25T08:25:04.478Z,1975
2016-04-25T08:25:17.634Z,1865
2016-04-25T08:25:30.981Z,1615
2016-04-25T08:25:44.325Z,1455
2016-04-25T08:25:57.653Z,1400
2016-04-25T08:26:10.981Z,1380
2016-04-25T08:26:24.312Z,1345
2016-04-25T08:26:37.625Z,1310
2016-04-25T08:26:50.937Z,1315
2016-04-25T08:27:04.250Z,1455
2016-04-25T08:27:17.593Z,1715
2016-04-25T08:27:30.924Z,1860
2016-04-25T08:27:44.252Z,1765
2016-04-25T08:27:57.564Z,1695
2016-04-25T08:28:10.877Z,1650
2016-04-25T08:28:24.020Z,1555
2016-04-25T08:28:36.536Z,1510
2016-04-25T08:28:50.630Z,1545
2016-04-25T08:29:07.880Z,1545
2016-04-25T08:29:21.333Z,1550
2016-04-25T08:29:35.758Z,1655
2016-04-25T08:29:49.023Z,1825
2016-04-25T08:30:02.351Z,1890
2016-04-25T08:30:15.695Z,1805
2016-04-25T08:30:32.026Z,1780
2016-04-25T08:30:45.761Z,1960
2016-04-25T08:30:59.058Z,2175
2016-04-25T08:31:12.401Z,1975
2016-04-25T08:31:25.731Z,1835
2016-04-25T08:31:39.044Z,1770
2016-04-25T08:32:19.841Z,1710
2016-04-25T08:32:47.344Z,1570
2016-04-25T08:33:00.641Z,1500
2016-04-25T08:33:13.984Z,1475
2016-04-25T08:33:27.315Z,1495
2016-04-25T08:33:40.627Z,1575
2016-04-25T08:33:53.940Z,1675
2016-04-25T08:34:08.940Z,1765
2016-04-25T08:34:24.444Z,1820
2016-04-25T08:34:37.772Z,1750
2016-04-25T08:34:51.100Z,1635
2016-04-25T08:35:04.662Z,1555
2016-04-25T08:35:17.990Z,1520
2016-04-25T08:35:31.305Z,1495
2016-04-25T08:35:44.633Z,1530
2016-04-25T08:35:57.946Z,1580
2016-04-25T08:36:11.289Z,1575
2016-04-25T08:36:24.620Z,1575
2016-04-25T08:36:37.933Z,1560
2016-04-25T08:36:51.245Z,1550
2016-04-25T08:37:04.605Z,1580
2016-04-25T08:37:18.214Z,1595
2016-04-25T08:37:31.529Z,1660
2016-04-25T08:37:44.872Z,1760
2016-04-25T08:37:58.185Z,1925
2016-04-25T08:38:11.497Z,2055
2016-04-25T08:38:24.813Z,2090
2016-04-25T08:38:38.157Z,2125
2016-04-25T08:38:51.454Z,2000
2016-04-25T08:39:07.032Z,1850
2016-04-25T08:39:20.344Z,1780
2016-04-25T08:39:33.660Z,1780
2016-04-25T08:39:46.988Z,1810
2016-04-25T08:40:00.285Z,1835
2016-04-25T08:40:13.628Z,1795
2016-04-25T08:40:26.990Z,1730
2016-04-25T08:40:54.698Z,1575
2016-04-25T08:41:08.026Z,1515
2016-04-25T08:41:21.338Z,1495
2016-04-25T08:41:34.701Z,1500
2016-04-25T08:41:48.045Z,1505
2016-04-25T08:42:01.357Z,1535
2016-04-25T08:42:14.701Z,1590
2016-04-25T08:42:28.032Z,1695
2016-04-25T08:42:41.188Z,1770
2016-04-25T08:42:54.532Z,1855
2016-04-25T08:43:07.829Z,1930
2016-04-25T08:43:21.266Z,2015
2016-04-25T08:43:35.300Z,2145
2016-04-25T08:43:51.550Z,2315
2016-04-25T08:44:06.143Z,2325
2016-04-25T08:44:22.159Z,2285
2016-04-25T08:44:35.460Z,2220
2016-04-25T08:44:49.366Z,2110
2016-04-25T08:45:02.882Z,1990
2016-04-25T08:45:16.210Z,1905
2016-04-25T08:45:29.759Z,1860
2016-04-25T08:45:43.102Z,1810
2016-04-25T08:45:56.431Z,1780
2016-04-25T08:46:09.727Z,1700
2016-04-25T08:46:23.056Z,1640
2016-04-25T08:46:36.387Z,1590
2016-04-25T08:46:49.730Z,1560
2016-04-25T08:47:03.043Z,1540
2016-04-25T08:47:16.371Z,1535
2016-04-25T08:47:29.701Z,1550
2016-04-25T08:47:42.998Z,1610
2016-04-25T08:47:56.561Z,1705
2016-04-25T08:48:09.889Z,1790
2016-04-25T08:48:23.201Z,1885
2016-04-25T08:48:36.517Z,1985
2016-04-25T08:48:49.876Z,2055
2016-04-25T08:49:06.267Z,2080
2016-04-25T08:49:19.626Z,2045
2016-04-25T08:49:32.973Z,1975
2016-04-25T08:49:46.301Z,1885
2016-04-25T08:49:59.613Z,1800
2016-04-25T08:50:12.926Z,1715
2016-04-25T08:50:26.428Z,1635
2016-04-25T08:50:39.975Z,1565
2016-04-25T08:50:53.334Z,1515
2016-04-25T08:51:06.694Z,1450
2016-04-25T08:51:23.428Z,1400
2016-04-25T08:51:51.337Z,1315
2016-04-25T08:52:04.665Z,1310
2016-04-25T08:52:17.978Z,1300
2016-04-25T08:52:31.309Z,1295
2016-04-25T08:52:44.840Z,1300
2016-04-25T08:52:58.168Z,1275
2016-04-25T08:53:11.481Z,1240
2016-04-25T08:53:24.809Z,1215
2016-04-25T08:53:38.358Z,1205
2016-04-25T08:53:52.014Z,1260
2016-04-25T08:54:09.170Z,1365
2016-04-25T08:54:22.327Z,1300
2016-04-25T08:54:35.658Z,1220
2016-04-25T08:54:49.017Z,1310
2016-04-25T08:55:02.626Z,1475
2016-04-25T08:55:15.939Z,1725
2016-04-25T08:55:29.286Z,1790
2016-04-25T08:56:10.098Z,1895
2016-04-25T08:56:23.411Z,1895
2016-04-25T08:56:36.741Z,1825
2016-04-25T08:56:50.069Z,1740
2016-04-25T08:57:03.413Z,1665
2016-04-25T08:57:16.725Z,1645
2016-04-25T08:57:30.041Z,1795
2016-04-25T08:57:43.369Z,1960
2016-04-25T08:57:56.697Z,2220
2016-04-25T08:58:10.072Z,2095
2016-04-25T08:58:23.447Z,1880
2016-04-25T08:58:38.137Z,1675
2016-04-25T08:58:52.028Z,1485
2016-04-25T08:59:07.997Z,1345
2016-04-25T08:59:23.606Z,1340
2016-04-25T08:59:37.640Z,1365
2016-04-25T08:59:50.969Z,1370
2016-04-25T09:00:03.828Z,1425
2016-04-25T09:00:17.156Z,1415
2016-04-25T09:00:30.502Z,1405
2016-04-25T09:00:43.814Z,1450
2016-04-25T09:01:11.314Z,1390
2016-04-25T09:01:24.642Z,1305
2016-04-25T09:01:37.989Z,1405
2016-04-25T09:02:05.552Z,1570
2016-04-25T09:02:18.864Z,1570
2016-04-25T09:02:32.179Z,1620
2016-04-25T09:02:45.507Z,1675
2016-04-25T09:02:58.851Z,1770
2016-04-25T09:03:12.179Z,1765
2016-04-25T09:03:25.510Z,1715
2016-04-25T09:03:39.057Z,1650
2016-04-25T09:03:52.385Z,1575
2016-04-25T09:04:07.650Z,1520
2016-04-25T09:04:21.182Z,1460
2016-04-25T09:04:34.513Z,1400
2016-04-25T09:04:47.857Z,1360
2016-04-25T09:05:01.200Z,1355
2016-04-25T09:05:14.544Z,1285
2016-04-25T09:05:27.891Z,1310
2016-04-25T09:05:41.235Z,1375
2016-04-25T09:06:22.563Z,1235
2016-04-25T09:06:36.174Z,1175
2016-04-25T09:06:49.502Z,1195
2016-04-25T09:07:02.846Z,1210
2016-04-25T09:07:16.205Z,1325
2016-04-25T09:07:29.505Z,1420
2016-04-25T09:07:42.818Z,1470
2016-04-25T09:07:56.177Z,1395
2016-04-25T09:08:09.521Z,1455
2016-04-25T09:08:22.896Z,1480
2016-04-25T09:08:36.430Z,1785
2016-04-25T09:08:49.758Z,1930
2016-04-25T09:09:03.071Z,2515
2016-04-25T09:09:19.461Z,2275
2016-04-25T09:09:32.808Z,2120
2016-04-25T09:09:46.324Z,2095
2016-04-25T09:09:59.652Z,2040
2016-04-25T09:10:12.980Z,1825
2016-04-25T09:10:26.294Z,1690
2016-04-25T09:10:39.669Z,1680
2016-04-25T09:10:52.998Z,1680
2016-04-25T09:11:06.544Z,1650
2016-04-25T09:11:34.032Z,1430
2016-04-25T09:11:47.360Z,1330
2016-04-25T09:12:00.688Z,1280
2016-04-25T09:12:17.032Z,1300
2016-04-25T09:12:30.346Z,1320
2016-04-25T09:12:43.690Z,1190
2016-04-25T09:12:57.018Z,1980
2016-04-25T09:13:10.549Z,2880
2016-04-25T09:13:24.096Z,2645
2016-04-25T09:14:05.506Z,2815
2016-04-25T09:14:18.615Z,2470
2016-04-25T09:14:31.852Z,2000
2016-04-25T09:14:46.524Z,1725
2016-04-25T09:15:00.165Z,1495
2016-04-25T09:15:13.712Z,1420
2016-04-25T09:15:26.323Z,1510
2016-04-25T09:15:39.667Z,1760
2016-04-25T09:15:53.026Z,1740
2016-04-25T09:16:06.557Z,2310
2016-04-25T09:16:48.205Z,3155
2016-04-25T09:17:01.736Z,2990
2016-04-25T09:17:15.283Z,2640
2016-04-25T09:17:28.630Z,2385
2016-04-25T09:17:42.177Z,2185
2016-04-25T09:17:55.380Z,2010
2016-04-25T09:18:08.911Z,1840
2016-04-25T09:18:22.224Z,1715
2016-04-25T09:18:35.570Z,1615
2016-04-25T09:19:17.070Z,1345
2016-04-25T09:19:30.401Z,1295
2016-04-25T09:19:43.916Z,1280
2016-04-25T09:19:57.635Z,1275
2016-04-25T09:20:11.213Z,1280
2016-04-25T09:20:52.841Z,2190
2016-04-25T09:21:06.075Z,2785
2016-04-25T09:21:19.404Z,2445
2016-04-25T09:21:32.735Z,2195
2016-04-25T09:21:45.907Z,2015
2016-04-25T09:22:13.453Z,1825
2016-04-25T09:22:26.785Z,1745
2016-04-25T09:22:40.113Z,1690
2016-04-25T09:22:53.425Z,1670
2016-04-25T09:23:06.800Z,1630
2016-04-25T09:23:20.144Z,1590
2016-04-25T09:23:33.474Z,1565
2016-04-25T09:23:46.802Z,1550
2016-04-25T09:24:03.005Z,1545
2016-04-25T09:24:16.365Z,1585
2016-04-25T09:24:29.711Z,1635
2016-04-25T09:24:43.040Z,1760
2016-04-25T09:24:56.602Z,1900
2016-04-25T09:25:10.133Z,2070
2016-04-25T09:25:26.667Z,2375
2016-04-25T09:25:40.245Z,2425
2016-04-25T09:25:53.792Z,2225
2016-04-25T09:26:08.729Z,2075
2016-04-25T09:26:25.073Z,1905
2016-04-25T09:26:38.716Z,1825
2016-04-25T09:26:52.060Z,1770
2016-04-25T09:27:19.748Z,1675
2016-04-25T09:27:32.907Z,1650
2016-04-25T09:27:46.438Z,1650
2016-04-25T09:28:13.813Z,1605
2016-04-25T09:28:26.879Z,1585
2016-04-25T09:28:40.519Z,1550
2016-04-25T09:28:53.863Z,1565
2016-04-25T09:29:08.660Z,1550
2016-04-25T09:29:28.131Z,1535
2016-04-25T09:29:41.053Z,1525
2016-04-25T09:29:54.459Z,1580
2016-04-25T09:30:07.803Z,1650
2016-04-25T09:30:21.131Z,1775
2016-04-25T09:30:34.477Z,1900
2016-04-25T09:30:47.665Z,2020
2016-04-25T09:31:01.196Z,2120
2016-04-25T09:31:14.743Z,2180
2016-04-25T09:31:28.401Z,2110
2016-04-25T09:31:41.745Z,2015
2016-04-25T09:31:55.073Z,1960
2016-04-25T09:32:08.620Z,1930
2016-04-25T09:32:21.964Z,1895
2016-04-25T09:32:35.296Z,1865
2016-04-25T09:32:48.640Z,1820
2016-04-25T09:33:01.968Z,1755
2016-04-25T09:33:15.327Z,1700
2016-04-25T09:33:28.673Z,1650
2016-04-25T09:33:42.001Z,1600
2016-04-25T09:33:55.329Z,1585
2016-04-25T09:34:12.189Z,1585
2016-04-25T09:34:25.501Z,1570
2016-04-25T09:34:39.253Z,1550
2016-04-25T09:34:52.550Z,1525
2016-04-25T09:35:06.300Z,1515
2016-04-25T09:35:22.644Z,1510
2016-04-25T09:35:53.334Z,1535
2016-04-25T09:36:34.993Z,1700
2016-04-25T09:36:48.306Z,1830
2016-04-25T09:37:16.197Z,2085
2016-04-25T09:37:29.543Z,2180
2016-04-25T09:37:42.887Z,2210
2016-04-25T09:37:56.215Z,2145
2016-04-25T09:38:09.559Z,2090
2016-04-25T09:38:40.561Z,1955
2016-04-25T09:38:53.936Z,1920
2016-04-25T09:39:12.670Z,1880
2016-04-25T09:39:25.873Z,1860
2016-04-25T09:39:39.189Z,1835
2016-04-25T09:39:52.533Z,1815
2016-04-25T09:40:09.283Z,1770
2016-04-25T09:40:23.033Z,1750
2016-04-25T09:40:36.411Z,1750
2016-04-25T09:40:49.786Z,1740
2016-04-25T09:41:03.114Z,1750
2016-04-25T09:41:16.458Z,1775
2016-04-25T09:41:47.022Z,1800
2016-04-25T09:42:00.381Z,1800
2016-04-25T09:42:13.710Z,1755
2016-04-25T09:42:27.259Z,1720
2016-04-25T09:42:40.619Z,1695
2016-04-25T09:42:53.963Z,1675
2016-04-25T09:43:07.291Z,1670
2016-04-25T09:43:20.603Z,1665
2016-04-25T09:43:33.981Z,1640
2016-04-25T09:44:02.231Z,1565
2016-04-25T09:44:19.856Z,1565
2016-04-25T09:44:36.514Z,1595
2016-04-25T09:44:50.577Z,1645
2016-04-25T09:45:03.968Z,1690
2016-04-25T09:45:17.327Z,1740
2016-04-25T09:45:30.705Z,1780
2016-04-25T09:45:44.033Z,1815
2016-04-25T09:45:57.580Z,1840
2016-04-25T09:46:11.096Z,1815
2016-04-25T09:46:24.642Z,1870
2016-04-25T09:46:38.161Z,1905
2016-04-25T09:46:51.505Z,1875
2016-04-25T09:47:33.133Z,1790
2016-04-25T09:47:46.492Z,1795
2016-04-25T09:47:59.820Z,1825
2016-04-25T09:48:13.164Z,1825
2016-04-25T09:48:26.695Z,1825
2016-04-25T09:48:40.041Z,1830
2016-04-25T09:48:53.572Z,1795
2016-04-25T09:49:21.479Z,1945
2016-04-25T09:50:02.278Z,1885
2016-04-25T09:50:15.591Z,1950
2016-04-25T09:50:32.156Z,2395
2016-04-25T09:50:45.516Z,2280
2016-04-25T09:50:58.860Z,2240
2016-04-25T09:51:12.188Z,2560
2016-04-25T09:51:25.516Z,2190
2016-04-25T09:51:39.065Z,2090
2016-04-25T09:51:52.393Z,2075
2016-04-25T09:52:05.940Z,2085
2016-04-25T09:52:19.471Z,2105
2016-04-25T09:52:32.802Z,2225
2016-04-25T09:52:46.349Z,2425
2016-04-25T09:52:59.677Z,2575
2016-04-25T09:53:13.005Z,2685
2016-04-25T09:53:26.536Z,2620
2016-04-25T09:53:39.867Z,2480
2016-04-25T09:53:53.257Z,2405
2016-04-25T09:54:08.788Z,2390
2016-04-25T09:54:36.260Z,2445
2016-04-25T09:54:49.588Z,2495
2016-04-25T09:55:02.760Z,2560
2016-04-25T09:55:30.263Z,2670
2016-04-25T09:55:43.638Z,2470
2016-04-25T09:55:56.919Z,2305
2016-04-25T09:56:09.857Z,2210
2016-04-25T09:56:37.172Z,2155
2016-04-25T09:56:50.501Z,2155
2016-04-25T09:57:03.813Z,2160
2016-04-25T09:57:17.157Z,2130
2016-04-25T09:57:30.565Z,2075
2016-04-25T09:57:43.878Z,2030
2016-04-25T09:57:57.206Z,1980
2016-04-25T09:58:10.503Z,1940
2016-04-25T09:58:24.049Z,1905
2016-04-25T09:58:52.084Z,1930
2016-04-25T09:59:12.412Z,2080
2016-04-25T09:59:25.396Z,2165
2016-04-25T09:59:38.977Z,2195
2016-04-25T09:59:51.884Z,2170
2016-04-25T10:00:05.805Z,2175
2016-04-25T10:00:47.480Z,2210
2016-04-25T10:01:01.012Z,2195
2016-04-25T10:01:14.340Z,2215
2016-04-25T10:01:27.654Z,2210
2016-04-25T10:01:41.248Z,2210
2016-04-25T10:02:23.092Z,2175
2016-04-25T10:02:36.423Z,2165
2016-04-25T10:02:49.735Z,2170
2016-04-25T10:03:03.251Z,2150
2016-04-25T10:03:17.032Z,2135
2016-04-25T10:03:30.362Z,2125
2016-04-25T10:03:43.690Z,2115
2016-04-25T10:03:57.003Z,2140
2016-04-25T10:04:13.456Z,2160
2016-04-25T10:04:26.800Z,2125
2016-04-25T10:04:40.162Z,2065
2016-04-25T10:04:53.693Z,2035
2016-04-25T10:05:07.006Z,2035
2016-04-25T10:05:34.478Z,2080
2016-04-25T10:05:47.821Z,2095
2016-04-25T10:06:01.134Z,2110
2016-04-25T10:06:14.681Z,2105
2016-04-25T10:06:28.012Z,2090
2016-04-25T10:06:41.324Z,2080
2016-04-25T10:06:54.887Z,2055
2016-04-25T10:07:08.215Z,2045
2016-04-25T10:07:21.528Z,2030
2016-04-25T10:07:34.717Z,2050
2016-04-25T10:07:47.905Z,2105
2016-04-25T10:08:01.217Z,2115
2016-04-25T10:08:14.530Z,2095
2016-04-25T10:08:27.829Z,2070
2016-04-25T10:08:41.158Z,2045
2016-04-25T10:08:54.517Z,2035
2016-04-25T10:09:08.970Z,2065
2016-04-25T10:09:23.533Z,2065
2016-04-25T10:09:36.832Z,2065
2016-04-25T10:09:50.161Z,2155
2016-04-25T10:10:03.707Z,2285
2016-04-25T10:10:16.848Z,2480
2016-04-25T10:10:30.179Z,2670
2016-04-25T10:10:43.523Z,2750
2016-04-25T10:10:56.835Z,2725
2016-04-25T10:11:10.210Z,2750
2016-04-25T10:11:23.414Z,2745
2016-04-25T10:11:36.744Z,2730
2016-04-25T10:11:50.103Z,2625
2016-04-25T10:12:03.416Z,2490
2016-04-25T10:12:16.744Z,2405
2016-04-25T10:12:30.089Z,2320
2016-04-25T10:12:43.386Z,2260
2016-04-25T10:12:56.746Z,2215
2016-04-25T10:13:10.074Z,2205
2016-04-25T10:13:23.386Z,2190
2016-04-25T10:13:36.484Z,2205
2016-04-25T10:13:49.984Z,2205
2016-04-25T10:14:02.781Z,2180
2016-04-25T10:14:19.031Z,2155
2016-04-25T10:14:33.471Z,2150
2016-04-25T10:14:46.300Z,2135
2016-04-25T10:14:59.300Z,2145
2016-04-25T10:15:12.628Z,2145
2016-04-25T10:15:25.940Z,2180
2016-04-25T10:15:39.302Z,2180
2016-04-25T10:15:52.630Z,2180
2016-04-25T10:16:06.192Z,2145
2016-04-25T10:16:19.489Z,2110
2016-04-25T10:16:33.039Z,2060
2016-04-25T10:16:46.383Z,2045
2016-04-25T10:16:59.711Z,2030
2016-04-25T10:17:13.023Z,2005
2016-04-25T10:17:26.383Z,1985
2016-04-25T10:17:39.682Z,1985
2016-04-25T10:17:53.025Z,1990
2016-04-25T10:18:06.338Z,2015
2016-04-25T10:18:19.635Z,2050
2016-04-25T10:18:32.997Z,2075